Time;durP1;ratioP1;P1;durP2;ratioP2;P2;SDS_P1;SDS_P2;PMS_P1;PMS_P2;Temp;Humidity;BMP_temperature;BMP_pressure;BME280_temperature;BME280_humidity;BME280_pressure;Samples;Min_cycle;Max_cycle;Signal;HPM_P1;HPM_P2
2022/07/27 00:00:49;;;;;;;7.63;4.47;;;24.90;92.60;;;;;;5059690;28;20501;-72
2022/07/27 00:03:53;;;;;;;9.60;4.45;;;24.90;92.70;;;;;;5071694;28;20060;-71
2022/07/27 00:06:57;;;;;;;6.45;3.85;;;24.80;91.60;;;;;;5072137;28;20040;-72
2022/07/27 00:10:04;;;;;;;6.45;3.92;;;24.80;91.20;;;;;;5071930;28;20118;-71
2022/07/27 00:13:07;;;;;;;5.90;3.60;;;24.80;90.30;;;;;;5072176;28;20048;-71
2022/07/27 00:16:12;;;;;;;8.07;3.53;;;24.80;90.00;;;;;;5071743;28;20502;-72
2022/07/27 00:19:15;;;;;;;4.75;3.53;;;24.70;90.30;;;;;;5071098;28;20056;-72
2022/07/27 00:22:21;;;;;;;4.22;3.30;;;24.70;90.10;;;;;;5072086;28;20063;-72
2022/07/27 00:25:26;;;;;;;5.72;3.03;;;24.70;88.90;;;;;;5071176;28;20077;-72
2022/07/27 00:28:30;;;;;;;6.40;3.20;;;24.60;87.00;;;;;;5071654;28;20040;-71
2022/07/27 00:31:34;;;;;;;5.57;3.80;;;24.60;89.30;;;;;;5071592;28;20394;-72
2022/07/27 00:34:38;;;;;;;6.32;4.05;;;24.60;90.30;;;;;;5071082;28;20059;-72
2022/07/27 00:37:42;;;;;;;9.52;4.32;;;24.60;90.70;;;;;;5071773;28;20318;-72
2022/07/27 00:40:46;;;;;;;6.97;3.42;;;24.60;90.50;;;;;;5071380;28;20497;-71
2022/07/27 00:43:56;;;;;;;9.02;3.83;;;24.50;90.30;;;;;;5071080;28;20050;-72
2022/07/27 00:47:00;;;;;;;6.18;3.53;;;24.50;90.10;;;;;;5071419;28;20059;-72
2022/07/27 00:50:05;;;;;;;5.80;3.72;;;24.50;89.90;;;;;;5070855;28;20037;-72
2022/07/27 00:53:10;;;;;;;5.45;3.60;;;24.50;90.70;;;;;;5071068;28;20048;-72
2022/07/27 00:56:14;;;;;;;5.82;3.47;;;24.50;90.80;;;;;;5071213;28;20047;-72
2022/07/27 00:59:19;;;;;;;7.38;4.50;;;24.50;91.00;;;;;;5071020;28;20051;-72
2022/07/27 01:02:25;;;;;;;9.85;6.05;;;24.40;93.50;;;;;;5071119;28;20039;-72
2022/07/27 01:05:30;;;;;;;12.32;6.97;;;24.50;98.90;;;;;;5070202;28;20044;-72
2022/07/27 01:08:34;;;;;;;13.60;8.68;;;24.50;99.90;;;;;;5070949;28;20609;-71
2022/07/27 01:11:38;;;;;;;12.45;8.32;;;24.40;99.90;;;;;;5070482;28;20063;-71
2022/07/27 01:14:42;;;;;;;11.77;8.57;;;24.40;99.90;;;;;;5070440;28;20055;-72
2022/07/27 01:17:46;;;;;;;14.85;8.73;;;24.40;99.90;;;;;;5070810;28;20043;-72
2022/07/27 01:20:49;;;;;;;16.55;9.85;;;24.40;99.90;;;;;;5070414;28;20052;-72
2022/07/27 01:23:54;;;;;;;13.15;9.82;;;24.40;99.90;;;;;;5057628;28;20055;-71
2022/07/27 01:27:01;;;;;;;17.98;11.10;;;24.30;99.90;;;;;;5058134;28;20427;-71
2022/07/27 01:30:25;;;;;;;20.33;11.18;;;24.30;99.90;;;;;;5070066;28;20039;-71
2022/07/27 01:33:29;;;;;;;22.00;11.35;;;24.30;99.90;;;;;;5069865;28;20051;-72
2022/07/27 01:36:33;;;;;;;15.48;9.90;;;24.30;99.90;;;;;;5070643;28;20621;-72
2022/07/27 01:39:36;;;;;;;16.77;10.68;;;24.20;99.90;;;;;;5070406;28;20309;-72
2022/07/27 01:42:40;;;;;;;15.88;11.13;;;24.20;99.90;;;;;;5070542;28;20055;-72
2022/07/27 01:45:44;;;;;;;16.73;10.85;;;24.10;99.90;;;;;;5070061;28;20048;-72
2022/07/27 01:48:48;;;;;;;15.07;10.13;;;24.10;99.90;;;;;;5070416;28;20059;-72
2022/07/27 01:51:52;;;;;;;18.00;10.57;;;24.10;99.90;;;;;;5070246;28;20052;-72
2022/07/27 01:54:57;;;;;;;19.80;11.50;;;24.00;99.90;;;;;;5069274;28;20580;-72
2022/07/27 01:58:04;;;;;;;19.65;11.00;;;24.00;99.90;;;;;;5070308;28;20040;-72
2022/07/27 02:01:09;;;;;;;17.95;11.88;;;24.00;99.90;;;;;;5069822;28;20278;-72
2022/07/27 02:04:13;;;;;;;16.17;10.68;;;23.90;99.90;;;;;;5069692;28;20047;-72
2022/07/27 02:07:17;;;;;;;17.58;10.45;;;23.80;99.90;;;;;;5070364;28;20047;-72
2022/07/27 02:10:21;;;;;;;15.82;10.80;;;23.70;99.90;;;;;;5070118;28;20072;-72
2022/07/27 02:13:27;;;;;;;19.75;11.98;;;23.60;99.90;;;;;;5069906;28;20044;-72
2022/07/27 02:16:31;;;;;;;14.88;11.10;;;23.50;99.90;;;;;;5069824;28;20059;-72
2022/07/27 02:19:35;;;;;;;15.23;10.13;;;23.40;99.90;;;;;;5057598;28;20051;-72
2022/07/27 02:22:39;;;;;;;15.43;10.45;;;23.30;99.90;;;;;;5067704;28;20056;-72
2022/07/27 02:25:44;;;;;;;13.10;10.32;;;23.20;99.90;;;;;;5070335;28;20047;-72
2022/07/27 02:28:48;;;;;;;16.08;9.80;;;23.10;99.90;;;;;;5070458;28;20047;-72
2022/07/27 02:31:52;;;;;;;15.77;9.48;;;23.10;99.90;;;;;;5070012;28;20051;-71
2022/07/27 02:34:56;;;;;;;13.75;9.07;;;23.10;99.90;;;;;;5069494;28;20071;-72
2022/07/27 02:38:00;;;;;;;14.13;8.15;;;23.20;99.90;;;;;;5069673;28;20051;-72
2022/07/27 02:41:03;;;;;;;11.23;8.85;;;23.30;99.90;;;;;;5069676;28;20119;-72
2022/07/27 02:44:07;;;;;;;14.20;8.57;;;23.30;99.90;;;;;;5072384;28;20410;-72
2022/07/27 02:47:11;;;;;;;16.92;10.30;;;23.40;99.90;;;;;;5073857;28;20044;-72
2022/07/27 02:50:15;;;;;;;14.40;9.63;;;23.20;99.90;;;;;;5073621;28;20091;-72
2022/07/27 02:53:19;;;;;;;13.73;8.30;;;23.10;99.90;;;;;;5073139;28;20044;-71
2022/07/27 02:56:24;;;;;;;15.95;9.38;;;23.10;99.90;;;;;;5073457;28;20043;-72
2022/07/27 02:59:28;;;;;;;13.70;8.90;;;23.10;99.90;;;;;;5073619;28;20035;-72
2022/07/27 03:02:32;;;;;;;12.32;9.25;;;23.00;99.90;;;;;;5073197;28;20399;-72
2022/07/27 03:05:36;;;;;;;13.75;9.85;;;23.00;99.90;;;;;;5072684;28;20044;-72
2022/07/27 03:08:40;;;;;;;17.67;9.93;;;23.00;99.90;;;;;;5072999;28;20036;-72
2022/07/27 03:11:44;;;;;;;10.00;8.60;;;23.00;99.90;;;;;;5060427;28;20047;-72
2022/07/27 03:14:49;;;;;;;13.43;9.32;;;23.00;99.90;;;;;;5072831;28;20047;-72
2022/07/27 03:17:53;;;;;;;17.15;10.02;;;23.00;99.90;;;;;;5072865;28;20047;-72
2022/07/27 03:20:57;;;;;;;15.13;9.82;;;22.90;99.90;;;;;;5072932;28;20387;-71
2022/07/27 03:24:00;;;;;;;16.52;10.60;;;22.80;99.90;;;;;;5072230;28;20044;-71
2022/07/27 03:27:04;;;;;;;11.48;10.15;;;22.60;99.90;;;;;;5072871;28;20044;-71
2022/07/27 03:30:09;;;;;;;18.67;11.52;;;22.50;99.90;;;;;;5072799;28;20055;-72
2022/07/27 03:33:13;;;;;;;13.00;10.25;;;22.40;99.90;;;;;;5072498;28;20494;-72
2022/07/27 03:36:17;;;;;;;15.82;11.23;;;22.30;99.90;;;;;;5072445;28;20407;-71
2022/07/27 03:39:21;;;;;;;17.02;11.02;;;22.30;99.90;;;;;;5072775;28;20055;-72
2022/07/27 03:42:25;;;;;;;16.50;10.88;;;22.20;99.90;;;;;;5072657;28;20047;-71
2022/07/27 03:45:29;;;;;;;16.58;10.35;;;22.10;99.90;;;;;;5072036;28;20048;-72
2022/07/27 03:48:33;;;;;;;15.43;11.38;;;22.10;99.90;;;;;;5072550;28;20494;-71
2022/07/27 03:51:37;;;;;;;16.73;11.15;;;21.90;99.90;;;;;;5072198;28;20047;-72
2022/07/27 03:54:41;;;;;;;13.30;10.48;;;21.70;99.90;;;;;;5071101;28;20048;-72
2022/07/27 03:57:45;;;;;;;17.50;10.57;;;21.70;99.90;;;;;;5072577;28;20490;-72
2022/07/27 04:00:49;;;;;;;18.10;11.57;;;21.60;99.90;;;;;;5072815;28;20399;-71
2022/07/27 04:03:53;;;;;;;20.60;11.73;;;21.60;99.90;;;;;;5071950;28;20059;-71
2022/07/27 04:06:57;;;;;;;18.77;11.68;;;21.50;99.90;;;;;;5072690;28;20063;-71
2022/07/27 04:10:02;;;;;;;15.80;10.73;;;21.50;99.90;;;;;;5072441;28;20403;-72
2022/07/27 04:13:06;;;;;;;17.98;10.85;;;21.50;99.90;;;;;;5072423;28;20405;-71
2022/07/27 04:16:10;;;;;;;18.30;10.07;;;21.40;99.90;;;;;;5072454;28;20043;-71
2022/07/27 04:19:15;;;;;;;18.98;8.70;;;21.50;99.90;;;;;;5072083;28;20051;-71
2022/07/27 04:22:19;;;;;;;21.23;9.30;;;21.60;99.90;;;;;;5071625;28;20078;-71
2022/07/27 04:25:23;;;;;;;19.25;9.80;;;21.60;99.90;;;;;;5071423;28;20399;-71
2022/07/27 04:28:27;;;;;;;17.38;9.98;;;21.50;99.90;;;;;;5071732;28;20055;-71
2022/07/27 04:31:31;;;;;;;14.32;9.35;;;21.50;99.90;;;;;;5071338;28;20043;-71
2022/07/27 04:34:35;;;;;;;14.55;8.98;;;21.50;99.90;;;;;;5070807;28;20055;-71
2022/07/27 04:37:39;;;;;;;10.30;9.23;;;21.50;99.90;;;;;;5071643;28;20060;-71
2022/07/27 04:40:43;;;;;;;23.73;9.38;;;21.50;99.90;;;;;;5071092;28;20498;-71
2022/07/27 04:43:47;;;;;;;12.68;9.20;;;21.40;99.90;;;;;;5070816;28;20044;-71
2022/07/27 04:46:51;;;;;;;12.60;8.73;;;21.40;99.90;;;;;;5070974;28;20064;-71
2022/07/27 04:49:55;;;;;;;11.43;8.50;;;21.40;99.90;;;;;;5071395;28;20634;-71
2022/07/27 04:52:59;;;;;;;13.50;9.40;;;21.70;99.90;;;;;;5071035;28;20511;-71
2022/07/27 04:56:04;;;;;;;12.32;7.57;;;23.20;99.90;;;;;;5071186;28;20289;-71
2022/07/27 04:59:08;;;;;;;12.48;8.30;;;24.80;99.90;;;;;;5070927;28;20310;-71
2022/07/27 05:02:12;;;;;;;12.98;8.57;;;25.70;99.90;;;;;;5070908;28;20052;-71
2022/07/27 05:05:16;;;;;;;13.68;8.18;;;26.50;99.90;;;;;;5070244;28;20055;-71
2022/07/27 05:08:20;;;;;;;12.50;8.13;;;27.30;99.90;;;;;;5070966;28;20142;-71
2022/07/27 05:11:24;;;;;;;10.52;7.30;;;28.00;99.90;;;;;;5070135;28;20051;-71
2022/07/27 05:14:28;;;;;;;12.70;8.35;;;28.80;99.90;;;;;;5070238;28;20043;-71
2022/07/27 05:17:31;;;;;;;12.55;8.25;;;29.20;99.90;;;;;;5070805;28;20047;-71
2022/07/27 05:20:35;;;;;;;13.65;7.72;;;29.50;99.90;;;;;;5070617;28;20052;-71
2022/07/27 05:23:39;;;;;;;12.45;6.97;;;29.40;99.90;;;;;;5069838;28;20047;-71
2022/07/27 05:26:43;;;;;;;16.92;7.53;;;29.40;99.90;;;;;;5068446;28;20056;-72
2022/07/27 05:29:48;;;;;;;13.20;6.80;;;30.00;99.90;;;;;;5069489;28;20032;-72
2022/07/27 05:32:52;;;;;;;11.68;6.43;;;30.70;99.90;;;;;;5069348;28;20040;-71
2022/07/27 05:35:57;;;;;;;12.25;6.70;;;30.90;98.80;;;;;;5055328;28;20043;-71
2022/07/27 05:39:00;;;;;;;9.80;6.72;;;30.80;98.40;;;;;;5068623;28;20043;-72
2022/07/27 05:42:04;;;;;;;10.10;6.65;;;30.50;98.30;;;;;;5068651;28;20038;-72
2022/07/27 05:45:10;;;;;;;11.98;6.40;;;30.30;98.50;;;;;;5068887;28;20052;-71
2022/07/27 05:48:14;;;;;;;15.70;6.45;;;30.70;97.90;;;;;;5070246;28;20051;-71
2022/07/27 05:51:19;;;;;;;10.05;6.78;;;30.90;97.10;;;;;;5070201;28;20459;-71
2022/07/27 05:54:23;;;;;;;9.30;6.70;;;30.30;97.10;;;;;;5069520;28;20199;-72
2022/07/27 05:57:28;;;;;;;14.68;7.45;;;29.80;97.80;;;;;;5070178;28;20047;-71
2022/07/27 06:00:32;;;;;;;13.68;6.60;;;30.00;98.00;;;;;;5069828;28;20075;-71
2022/07/27 06:03:37;;;;;;;17.90;6.82;;;30.30;97.50;;;;;;5069602;28;20051;-72
2022/07/27 06:10:04;;;;;;;11.68;6.97;;;31.20;96.30;;;;;;5057375;28;20392;-71
2022/07/27 06:13:10;;;;;;;13.18;7.13;;;30.90;95.90;;;;;;5069758;28;20411;-71
2022/07/27 06:16:14;;;;;;;13.95;7.45;;;29.80;96.70;;;;;;5070253;28;20039;-72
2022/07/27 06:19:19;;;;;;;9.98;6.45;;;29.00;98.80;;;;;;5069460;28;20052;-72
2022/07/27 06:22:23;;;;;;;12.43;7.10;;;28.80;99.90;;;;;;5070038;28;20041;-71
2022/07/27 06:25:31;;;;;;;10.25;6.22;;;29.10;99.30;;;;;;5069380;28;20459;-72
2022/07/27 06:28:35;;;;;;;15.93;6.82;;;30.10;98.30;;;;;;5069685;28;20035;-72
2022/07/27 06:31:39;;;;;;;11.98;6.78;;;30.20;97.70;;;;;;5063073;28;20043;-72
2022/07/27 06:34:43;;;;;;;9.65;6.45;;;30.70;96.90;;;;;;5067222;28;20044;-71
2022/07/27 06:37:51;;;;;;;9.48;6.30;;;31.30;96.00;;;;;;5068406;28;20536;-72
2022/07/27 06:40:55;;;;;;;17.13;6.90;;;31.80;95.00;;;;;;5058764;28;20039;-71
2022/07/27 06:44:00;;;;;;;11.65;7.05;;;32.20;94.20;;;;;;5063131;28;20047;-71
2022/07/27 06:47:04;;;;;;;11.15;6.65;;;31.40;95.40;;;;;;5084068;28;20047;-71
2022/07/27 06:50:08;;;;;;;14.13;6.53;;;30.80;95.60;;;;;;5086121;28;20473;-72
2022/07/27 06:53:12;;;;;;;13.18;7.07;;;30.70;96.20;;;;;;5075218;28;20379;-72
2022/07/27 06:56:17;;;;;;;8.88;6.88;;;30.50;96.00;;;;;;5085606;28;20043;-71
2022/07/27 06:59:20;;;;;;;11.73;6.53;;;31.50;95.70;;;;;;5075067;28;20047;-71
2022/07/27 07:02:26;;;;;;;11.65;5.97;;;30.80;96.10;;;;;;5072537;28;20048;-72
2022/07/27 07:05:31;;;;;;;13.15;6.75;;;32.40;94.50;;;;;;5069297;28;20055;-72
2022/07/27 07:08:35;;;;;;;12.65;6.30;;;31.90;94.30;;;;;;5057677;28;20040;-72
2022/07/27 07:11:39;;;;;;;13.13;6.43;;;32.80;93.00;;;;;;5064668;28;20494;-72
2022/07/27 07:14:44;;;;;;;12.15;6.53;;;31.60;94.20;;;;;;5069356;28;20371;-72
2022/07/27 07:17:48;;;;;;;12.32;5.97;;;31.50;94.50;;;;;;5079273;28;20047;-72
2022/07/27 07:20:53;;;;;;;12.77;6.18;;;30.60;93.90;;;;;;5070178;28;20044;-71
2022/07/27 07:23:57;;;;;;;14.38;5.97;;;31.70;93.60;;;;;;5068898;28;20040;-71
2022/07/27 07:27:01;;;;;;;11.63;6.70;;;32.40;92.60;;;;;;5079233;28;20047;-71
2022/07/27 07:30:07;;;;;;;7.78;5.68;;;30.90;94.10;;;;;;5073226;28;20043;-72
2022/07/27 07:33:11;;;;;;;14.30;6.05;;;31.80;93.30;;;;;;5072210;28;20044;-71
2022/07/27 07:36:15;;;;;;;10.55;5.72;;;32.70;92.20;;;;;;5065899;28;20035;-71
2022/07/27 07:39:19;;;;;;;8.90;5.30;;;33.00;90.70;;;;;;5073681;28;20044;-71
2022/07/27 07:42:23;;;;;;;8.32;5.65;;;33.10;90.70;;;;;;5081991;28;20047;-72
2022/07/27 07:45:28;;;;;;;8.43;5.32;;;34.70;87.50;;;;;;5073226;28;20047;-71
2022/07/27 07:48:33;;;;;;;8.15;4.75;;;35.90;85.50;;;;;;5069787;28;20048;-72
2022/07/27 07:51:38;;;;;;;10.45;4.70;;;36.20;84.40;;;;;;5072886;28;20051;-71
2022/07/27 07:54:42;;;;;;;7.65;4.38;;;37.40;80.80;;;;;;5065028;28;20069;-72
2022/07/27 07:57:47;;;;;;;9.23;4.53;;;36.80;78.70;;;;;;5073019;28;20055;-71
2022/07/27 08:00:51;;;;;;;7.18;3.67;;;39.00;76.20;;;;;;5072884;28;20051;-71
2022/07/27 08:03:55;;;;;;;7.60;4.32;;;40.20;72.70;;;;;;5070948;28;20040;-72
2022/07/27 08:06:59;;;;;;;6.30;4.10;;;41.20;70.80;;;;;;5083247;28;20069;-72
2022/07/27 08:10:04;;;;;;;7.68;3.50;;;42.00;68.80;;;;;;5089937;28;20055;-72
2022/07/27 08:13:09;;;;;;;5.55;3.95;;;43.10;66.90;;;;;;5070488;28;20039;-72
2022/07/27 08:16:13;;;;;;;7.45;3.40;;;43.30;66.40;;;;;;5077534;28;20059;-72
2022/07/27 08:19:17;;;;;;;6.40;3.38;;;44.20;64.30;;;;;;5081095;28;20570;-72
2022/07/27 08:22:21;;;;;;;5.60;2.97;;;44.70;63.30;;;;;;5079408;28;20040;-72
2022/07/27 08:25:25;;;;;;;6.20;3.38;;;45.00;62.30;;;;;;5067688;28;20760;-72
2022/07/27 08:28:29;;;;;;;5.93;3.20;;;45.50;61.20;;;;;;5091645;28;20494;-72
2022/07/27 08:31:33;;;;;;;6.28;2.75;;;45.90;60.00;;;;;;5088379;28;20055;-72
2022/07/27 08:34:37;;;;;;;9.02;3.22;;;46.70;59.10;;;;;;5074106;28;20047;-72
2022/07/27 08:37:41;;;;;;;5.75;3.03;;;47.10;57.70;;;;;;5067788;28;20470;-72
2022/07/27 08:40:46;;;;;;;6.43;3.20;;;46.90;57.50;;;;;;5082014;28;20055;-72
2022/07/27 08:43:53;;;;;;;6.68;2.88;;;47.00;57.70;;;;;;5067078;28;20047;-72
2022/07/27 08:47:01;;;;;;;8.23;3.10;;;46.90;57.40;;;;;;5077213;28;20170;-72
2022/07/27 08:50:33;;;;;;;5.43;2.40;;;46.90;57.20;;;;;;5079194;28;20043;-73
2022/07/27 08:53:38;;;;;;;5.75;2.75;;;47.00;55.80;;;;;;5077229;28;20407;-72
2022/07/27 08:56:44;;;;;;;6.78;2.80;;;48.10;54.40;;;;;;5069553;28;20200;-72
2022/07/27 08:59:49;;;;;;;5.40;2.55;;;48.50;53.90;;;;;;5075017;28;20411;-72
2022/07/27 09:02:53;;;;;;;3.80;2.50;;;49.00;53.00;;;;;;5073202;28;20055;-72
2022/07/27 09:05:57;;;;;;;5.00;2.80;;;49.20;52.00;;;;;;5077179;28;20054;-72
2022/07/27 09:09:01;;;;;;;4.88;2.63;;;47.40;51.50;;;;;;5076983;28;20039;-72
2022/07/27 09:12:08;;;;;;;6.70;2.45;;;48.20;50.50;;;;;;5072049;28;20387;-72
2022/07/27 09:15:14;;;;;;;4.43;2.08;;;47.60;50.60;;;;;;5077109;28;20044;-72
2022/07/27 09:18:21;;;;;;;6.07;2.40;;;47.60;50.60;;;;;;5070293;28;20036;-73
2022/07/27 09:21:25;;;;;;;3.90;2.22;;;48.60;50.30;;;;;;5065068;28;20051;-72
2022/07/27 09:24:29;;;;;;;5.40;2.40;;;48.70;50.60;;;;;;5067675;28;20047;-73
2022/07/27 09:27:33;;;;;;;6.28;2.55;;;50.20;49.80;;;;;;5058250;28;20494;-72
2022/07/27 09:30:42;;;;;;;3.67;2.17;;;51.70;49.30;;;;;;5070262;28;20390;-73
2022/07/27 09:33:47;;;;;;;;;;;52.40;49.30;;;;;;5082025;28;20039;-72
2022/07/27 09:36:53;;;;;;;3.90;2.33;;;53.20;48.00;;;;;;5070923;28;20347;-72
2022/07/27 09:40:11;;;;;;;3.95;2.20;;;50.20;47.90;;;;;;5070841;28;20044;-71
2022/07/27 09:43:15;;;;;;;;;;;51.00;48.70;;;;;;5068112;28;20051;-71
2022/07/27 09:46:34;;;;;;;4.82;2.10;;;52.40;47.80;;;;;;5078202;28;19916;-72
2022/07/27 09:49:37;;;;;;;3.13;1.60;;;53.10;46.90;;;;;;5058633;28;20115;-72
2022/07/27 09:52:43;;;;;;;4.15;1.95;;;53.50;44.20;;;;;;5073447;28;20062;-72
2022/07/27 09:55:58;;;;;;;4.45;2.17;;;53.30;45.50;;;;;;5070839;28;20044;-71
2022/07/27 09:59:03;;;;;;;3.30;1.60;;;54.00;45.50;;;;;;5071439;28;20051;-72
2022/07/27 10:02:07;;;;;;;8.80;2.53;;;53.70;45.50;;;;;;5077471;28;20055;-72
2022/07/27 10:05:12;;;;;;;6.75;3.08;;;45.20;47.60;;;;;;5079020;28;20051;-71
2022/07/27 10:08:17;;;;;;;10.27;2.80;;;43.80;49.80;;;;;;5070073;28;20047;-71
2022/07/27 10:11:22;;;;;;;5.88;2.40;;;43.40;50.50;;;;;;5073767;28;20486;-71
2022/07/27 10:14:26;;;;;;;7.70;2.80;;;45.80;50.80;;;;;;5062295;28;20573;-71
2022/07/27 10:17:30;;;;;;;20.08;3.45;;;48.00;49.30;;;;;;5069230;28;20342;-71
2022/07/27 10:20:38;;;;;;;10.38;2.90;;;49.30;50.30;;;;;;5072286;28;20063;-71
2022/07/27 10:23:57;;;;;;;6.00;2.43;;;50.70;49.50;;;;;;5049747;28;20498;-71
2022/07/27 10:27:26;;;;;;;4.75;2.30;;;52.20;48.30;;;;;;5061108;28;20043;-71
2022/07/27 10:30:31;;;;;;;4.07;2.60;;;52.70;48.30;;;;;;5069823;28;20048;-71
2022/07/27 10:33:42;;;;;;;4.85;2.92;;;52.00;47.70;;;;;;5068830;28;20040;-71
2022/07/27 10:36:51;;;;;;;4.60;2.40;;;50.30;47.70;;;;;;5056467;28;20562;-71
2022/07/27 10:43:23;;;;;;;10.23;3.08;;;42.30;49.90;;;;;;5068786;28;20068;-71
2022/07/27 10:46:30;;;;;;;8.13;2.90;;;41.10;52.70;;;;;;5069351;28;20067;-70
2022/07/27 10:49:36;;;;;;;7.75;3.10;;;40.80;52.90;;;;;;5070372;28;20043;-70
2022/07/27 10:53:02;;;;;;;6.80;3.00;;;41.40;52.10;;;;;;5068956;28;20502;-71
2022/07/27 10:56:08;;;;;;;4.10;2.88;;;40.40;52.10;;;;;;5057143;28;20067;-71
2022/07/27 10:59:11;;;;;;;6.43;2.65;;;42.30;51.70;;;;;;5049829;28;20040;-71
2022/07/27 11:02:17;;;;;;;7.60;3.13;;;44.20;51.50;;;;;;5054155;28;20043;-71
2022/07/27 11:05:21;;;;;;;4.93;2.72;;;45.50;50.30;;;;;;5074321;28;20039;-72
2022/07/27 11:08:27;;;;;;;11.52;2.70;;;46.70;49.80;;;;;;5072996;28;20310;-71
2022/07/27 11:11:33;;;;;;;4.97;2.95;;;48.10;49.00;;;;;;5060499;28;20051;-71
2022/07/27 11:14:47;;;;;;;7.15;2.95;;;49.30;49.70;;;;;;5060499;28;20047;-71
2022/07/27 11:17:51;;;;;;;7.72;2.72;;;48.30;49.90;;;;;;5072925;28;20047;-71
2022/07/27 11:21:19;;;;;;;4.65;2.97;;;46.50;50.90;;;;;;5074973;28;20047;-73
2022/07/27 11:24:23;;;;;;;6.93;3.15;;;44.00;51.30;;;;;;5080275;28;20040;-71
2022/07/27 11:27:29;;;;;;;7.07;3.17;;;45.80;51.60;;;;;;5081987;28;20047;-71
2022/07/27 11:30:33;;;;;;;9.23;2.83;;;44.90;51.40;;;;;;5065719;28;20047;-71
2022/07/27 11:33:53;;;;;;;6.70;3.25;;;43.90;51.70;;;;;;5076212;28;20069;-73
2022/07/27 11:37:00;;;;;;;6.90;3.53;;;44.50;51.90;;;;;;5069889;28;20047;-72
2022/07/27 11:40:06;;;;;;;7.20;3.47;;;44.80;50.30;;;;;;5070799;28;20032;-72
2022/07/27 11:43:11;;;;;;;6.93;3.60;;;44.30;52.10;;;;;;5059820;28;20063;-73
2022/07/27 11:46:27;;;;;;;10.52;3.90;;;44.60;50.90;;;;;;5072653;28;20514;-73
2022/07/27 11:49:32;;;;;;;7.45;3.22;;;43.50;52.20;;;;;;5067391;28;20044;-72
2022/07/27 11:52:36;;;;;;;5.63;2.92;;;45.30;51.40;;;;;;5069579;28;20380;-72
2022/07/27 11:55:48;;;;;;;6.57;2.80;;;45.40;51.60;;;;;;5077412;28;20047;-72
2022/07/27 11:59:14;;;;;;;7.93;2.92;;;46.70;50.70;;;;;;5034755;28;20047;-72
2022/07/27 12:02:20;;;;;;;8.05;2.80;;;47.30;50.50;;;;;;5081609;28;20051;-72
2022/07/27 12:05:24;;;;;;;8.55;3.03;;;48.20;50.00;;;;;;5073278;28;20055;-73
2022/07/27 12:08:29;;;;;;;5.82;2.58;;;47.80;49.90;;;;;;5080753;28;20044;-70
2022/07/27 12:11:49;;;;;;;4.95;2.63;;;48.10;50.00;;;;;;5068984;28;20509;-73
2022/07/27 12:15:19;;;;;;;8.02;3.05;;;48.30;49.80;;;;;;5068260;28;20087;-70
2022/07/27 12:18:23;;;;;;;10.00;2.78;;;48.70;49.60;;;;;;5073308;28;20035;-72
2022/07/27 12:21:27;;;;;;;7.78;3.20;;;45.60;51.00;;;;;;5074140;28;20047;-72
2022/07/27 12:24:42;;;;;;;9.52;2.85;;;45.80;52.50;;;;;;5090828;28;20047;-72
2022/07/27 12:28:03;;;;;;;6.15;3.05;;;45.70;51.70;;;;;;5088235;28;20102;-73
2022/07/27 12:31:16;;;;;;;7.50;3.30;;;46.20;52.90;;;;;;5081069;28;20039;-72
2022/07/27 12:34:20;;;;;;;9.75;3.05;;;46.30;52.40;;;;;;5083607;28;20036;-72
2022/07/27 12:37:31;;;;;;;4.57;3.00;;;46.70;52.00;;;;;;5071613;28;20045;-72
2022/07/27 12:40:48;;;;;;;6.78;3.38;;;45.10;53.00;;;;;;5071906;28;20048;-76
2022/07/27 12:44:05;;;;;;;6.72;3.63;;;44.80;54.10;;;;;;5058259;28;20044;-73
2022/07/27 12:50:34;;;;;;;9.55;3.88;;;45.00;53.10;;;;;;5059923;28;20047;-75
2022/07/27 12:53:38;;;;;;;6.65;3.63;;;45.20;53.00;;;;;;5069771;28;20047;-75
2022/07/27 12:56:43;;;;;;;4.63;3.13;;;44.30;53.00;;;;;;5057730;28;20051;-75
2022/07/27 12:59:47;;;;;;;6.70;3.72;;;43.40;53.70;;;;;;5051370;28;20498;-74
2022/07/27 13:02:51;;;;;;;13.77;3.92;;;43.50;53.60;;;;;;5067422;28;20387;-72
2022/07/27 13:05:55;;;;;;;6.63;3.53;;;40.90;54.60;;;;;;5059883;28;20039;-73
2022/07/27 13:09:00;;;;;;;5.57;3.08;;;40.50;56.10;;;;;;5064813;28;20051;-76
2022/07/27 13:12:04;;;;;;;10.70;3.40;;;41.50;54.60;;;;;;5062719;28;20044;-74
2022/07/27 13:15:08;;;;;;;8.88;3.65;;;42.20;54.70;;;;;;5082092;28;20043;-76
2022/07/27 13:18:12;;;;;;;7.90;3.40;;;42.80;53.70;;;;;;5077450;28;20052;-76
2022/07/27 13:21:17;;;;;;;9.93;3.22;;;43.40;53.60;;;;;;5076970;28;20880;-75
2022/07/27 13:24:22;;;;;;;10.20;3.55;;;43.80;53.50;;;;;;5082631;28;20035;-75
2022/07/27 13:27:27;;;;;;;6.05;3.30;;;43.60;54.20;;;;;;5069033;28;20043;-75
2022/07/27 13:30:32;;;;;;;5.90;3.05;;;43.10;54.10;;;;;;5071229;28;20051;-74
2022/07/27 13:33:36;;;;;;;6.25;3.13;;;42.60;54.20;;;;;;5070753;28;20048;-74
2022/07/27 13:36:41;;;;;;;6.88;3.00;;;42.10;54.20;;;;;;5068112;28;20034;-74
2022/07/27 13:39:46;;;;;;;5.47;3.20;;;42.30;54.20;;;;;;5066769;28;20043;-75
2022/07/27 13:42:50;;;;;;;6.65;3.20;;;42.30;54.30;;;;;;5051630;28;20039;-75
2022/07/27 13:45:54;;;;;;;8.75;3.65;;;42.40;54.60;;;;;;5066626;28;20044;-74
2022/07/27 13:48:58;;;;;;;6.22;3.40;;;42.60;54.20;;;;;;5064123;28;20039;-75
2022/07/27 13:52:03;;;;;;;9.90;3.33;;;42.30;54.20;;;;;;5070350;28;20039;-72
2022/07/27 13:55:07;;;;;;;11.27;3.40;;;41.90;55.90;;;;;;5067066;28;20035;-74
2022/07/27 13:58:12;;;;;;;5.65;3.10;;;40.80;57.00;;;;;;5070567;28;20388;-75
2022/07/27 14:01:16;;;;;;;5.90;3.40;;;40.70;56.50;;;;;;5067624;28;20055;-73
2022/07/27 14:04:20;;;;;;;6.82;3.55;;;41.10;55.80;;;;;;5049843;28;20040;-72
2022/07/27 14:07:24;;;;;;;7.28;3.60;;;41.10;55.90;;;;;;5070325;28;20043;-74
2022/07/27 14:10:31;;;;;;;9.60;3.80;;;40.90;56.30;;;;;;5064064;28;20498;-74
2022/07/27 14:13:35;;;;;;;5.50;3.25;;;40.90;57.00;;;;;;5065396;28;20102;-75
2022/07/27 14:16:39;;;;;;;9.02;3.25;;;40.90;56.40;;;;;;5066672;28;20531;-73
2022/07/27 14:19:43;;;;;;;10.95;3.83;;;40.70;57.00;;;;;;5065418;28;20525;-74
2022/07/27 14:22:47;;;;;;;7.20;3.40;;;40.50;57.00;;;;;;5055900;28;20267;-75
2022/07/27 14:25:52;;;;;;;9.35;4.07;;;40.40;57.30;;;;;;5054988;28;20040;-75
2022/07/27 14:28:56;;;;;;;5.70;3.88;;;40.10;58.40;;;;;;5066068;28;20051;-75
2022/07/27 14:32:00;;;;;;;7.07;3.75;;;39.80;58.20;;;;;;5063072;28;20051;-74
2022/07/27 14:35:05;;;;;;;6.47;3.45;;;40.00;58.50;;;;;;5060429;28;20051;-74
2022/07/27 14:38:09;;;;;;;8.35;3.67;;;40.10;58.60;;;;;;5060126;28;20039;-74
2022/07/27 14:41:13;;;;;;;8.20;3.60;;;40.10;58.50;;;;;;5071394;28;20047;-73
2022/07/27 14:44:17;;;;;;;16.20;4.13;;;39.90;59.50;;;;;;5081895;28;20636;-73
2022/07/27 14:47:21;;;;;;;7.07;3.58;;;39.70;59.00;;;;;;5073798;28;20399;-73
2022/07/27 14:50:26;;;;;;;6.05;3.45;;;39.70;59.70;;;;;;5074435;28;20048;-74
2022/07/27 14:53:30;;;;;;;10.93;3.67;;;39.50;59.20;;;;;;5065989;28;20490;-73
2022/07/27 14:56:35;;;;;;;6.70;3.30;;;39.40;60.30;;;;;;5058777;28;20051;-74
2022/07/27 14:59:39;;;;;;;10.13;3.95;;;39.20;59.70;;;;;;5076192;28;20056;-73
2022/07/27 15:02:44;;;;;;;13.13;3.67;;;38.90;60.30;;;;;;5074435;28;20648;-73
2022/07/27 15:05:48;;;;;;;7.95;4.13;;;38.80;60.50;;;;;;5069074;28;20410;-75
2022/07/27 15:08:52;;;;;;;6.38;3.67;;;38.90;60.40;;;;;;5066902;28;20051;-74
2022/07/27 15:11:57;;;;;;;10.30;3.80;;;39.00;60.50;;;;;;5080370;28;20039;-73
2022/07/27 15:15:07;;;;;;;11.32;3.65;;;39.00;60.40;;;;;;5078285;28;20040;-73
2022/07/27 15:18:11;;;;;;;6.30;3.60;;;38.90;60.50;;;;;;5068350;28;20051;-75
2022/07/27 15:21:15;;;;;;;10.27;3.50;;;38.80;60.00;;;;;;5086360;28;20060;-73
2022/07/27 15:24:19;;;;;;;7.95;3.60;;;38.80;59.80;;;;;;5072734;28;20043;-73
2022/07/27 15:27:23;;;;;;;11.63;4.57;;;38.80;60.20;;;;;;5070990;28;20059;-73
2022/07/27 15:30:27;;;;;;;18.05;3.83;;;38.50;60.90;;;;;;5065004;28;20190;-74
2022/07/27 15:33:31;;;;;;;12.98;4.13;;;38.30;61.70;;;;;;5065615;28;20043;-73
2022/07/27 15:36:35;;;;;;;6.63;3.60;;;38.00;62.50;;;;;;5068496;28;20047;-74
2022/07/27 15:39:39;;;;;;;9.70;3.88;;;38.10;61.90;;;;;;5060506;28;20047;-76
2022/07/27 15:42:43;;;;;;;13.90;4.72;;;38.20;62.20;;;;;;5064518;28;20340;-72
2022/07/27 15:45:49;;;;;;;7.13;4.10;;;37.70;62.50;;;;;;5073192;28;20051;-73
2022/07/27 15:48:54;;;;;;;7.05;4.18;;;37.40;62.50;;;;;;5052747;28;20052;-74
2022/07/27 15:51:59;;;;;;;4.43;3.85;;;37.40;62.60;;;;;;5070849;28;20115;-74
2022/07/27 15:55:04;;;;;;;12.02;3.83;;;37.40;62.40;;;;;;5057353;28;20486;-74
2022/07/27 15:58:09;;;;;;;10.18;4.10;;;37.40;63.20;;;;;;5077925;28;20043;-75
2022/07/27 16:01:13;;;;;;;5.60;4.05;;;37.40;64.40;;;;;;5074083;28;20059;-75
2022/07/27 16:04:17;;;;;;;9.77;3.97;;;37.00;64.80;;;;;;5080046;28;20067;-73
2022/07/27 16:07:22;;;;;;;12.98;3.80;;;36.80;65.20;;;;;;5075096;28;20055;-73